Time,TemperatureF,DewpointF,PressureIn,WindDirection,WindDirectionDegrees,WindSpeedMPH,WindSpeedGustMPH,Humidity,HourlyPrecipIn,Conditions,Clouds,dailyrainin,SolarRadiationWatts/m^2,SoftwareType,DateUTC
2013-08-26 00:01:00,52.0,51.0,-100.00,NW,306,1.0,6.0,95,0.00,,,0.03,0.000000,,2013-08-26 07:01:00,
2013-08-26 00:42:00,53.0,52.0,-100.00,NW,319,1.0,4.0,95,0.00,,,0.03,0.000000,,2013-08-26 07:42:00,
2013-08-26 00:52:00,53.0,52.0,-100.00,NW,319,1.0,4.0,95,0.00,,,0.03,0.000000,,2013-08-26 07:52:00,
2013-08-26 01:02:00,53.0,52.0,-100.00,NW,319,1.0,4.0,95,0.00,,,0.03,0.000000,,2013-08-26 08:02:00,
2013-08-26 01:42:00,51.0,50.0,-100.00,WNW,297,0.0,2.0,96,0.00,,,0.03,0.000000,,2013-08-26 08:42:00,
2013-08-26 01:52:00,51.0,50.0,-100.00,WNW,297,0.0,2.0,96,0.00,,,0.03,0.000000,,2013-08-26 08:52:00,
2013-08-26 02:02:00,51.0,50.0,-100.00,WNW,297,0.0,2.0,96,0.00,,,0.03,0.000000,,2013-08-26 09:02:00,
2013-08-26 02:43:00,52.0,51.0,-100.00,East,94,1.0,3.0,96,0.00,,,0.03,0.000000,,2013-08-26 09:43:00,
2013-08-26 02:53:00,52.0,51.0,-100.00,East,94,1.0,3.0,96,0.00,,,0.03,0.000000,,2013-08-26 09:53:00,
2013-08-26 03:03:00,52.0,51.0,-100.00,East,94,1.0,3.0,96,0.00,,,0.03,0.000000,,2013-08-26 10:03:00,
2013-08-26 03:42:00,51.0,50.0,-100.00,SSE,150,1.0,1.0,96,0.00,,,0.03,0.000000,,2013-08-26 10:42:00,
2013-08-26 03:52:00,51.0,50.0,-100.00,SSE,150,1.0,1.0,96,0.00,,,0.03,0.000000,,2013-08-26 10:52:00,
2013-08-26 04:02:00,51.0,50.0,-100.00,SSE,150,1.0,1.0,96,0.00,,,0.03,0.000000,,2013-08-26 11:02:00,
2013-08-26 04:42:00,51.0,50.0,-100.00,NNW,332,0.0,2.0,96,0.00,,,0.03,0.000000,,2013-08-26 11:42:00,
2013-08-26 04:52:00,51.0,50.0,-100.00,NNW,332,0.0,2.0,96,0.00,,,0.03,0.000000,,2013-08-26 11:52:00,
2013-08-26 05:01:00,51.0,50.0,-100.00,NNW,332,0.0,2.0,96,0.00,,,0.03,0.000000,,2013-08-26 12:01:00,
2013-08-26 05:42:00,51.0,50.0,-100.00,SW,226,1.0,3.0,96,0.00,,,0.03,0.000000,,2013-08-26 12:42:00,
2013-08-26 05:52:00,51.0,50.0,-100.00,SW,226,1.0,3.0,96,0.00,,,0.03,0.000000,,2013-08-26 12:52:00,
2013-08-26 06:02:00,51.0,50.0,-100.00,SW,226,1.0,3.0,96,0.00,,,0.03,0.000000,,2013-08-26 13:02:00,
2013-08-26 06:42:00,52.0,51.0,-100.00,NNE,21,1.0,2.0,95,0.00,,,0.03,0.000000,,2013-08-26 13:42:00,
2013-08-26 06:52:00,52.0,51.0,-100.00,NNE,21,1.0,2.0,95,0.00,,,0.03,0.000000,,2013-08-26 13:52:00,
2013-08-26 07:02:00,52.0,51.0,-100.00,NNE,21,1.0,2.0,95,0.00,,,0.03,0.000000,,2013-08-26 14:02:00,
2013-08-26 07:42:00,50.0,48.0,-100.00,NE,43,1.0,4.0,94,0.00,,,0.03,19.000000,,2013-08-26 14:42:00,
2013-08-26 07:52:00,50.0,48.0,-100.00,NE,43,1.0,4.0,94,0.00,,,0.03,19.000000,,2013-08-26 14:52:00,
2013-08-26 08:01:00,50.0,48.0,-100.00,NE,43,1.0,4.0,94,0.00,,,0.03,19.000000,,2013-08-26 15:01:00,
2013-08-26 08:09:00,55.0,53.0,-100.00,East,89,1.0,5.0,94,0.00,,,0.03,102.000000,,2013-08-26 15:09:00,
2013-08-26 08:59:00,55.0,53.0,-100.00,East,89,1.0,5.0,94,0.00,,,0.03,102.000000,,2013-08-26 15:59:00,
2013-08-26 09:48:00,60.0,54.0,-100.00,North,359,1.0,5.0,80,0.00,,,0.03,151.000000,,2013-08-26 16:48:00,
2013-08-26 09:59:00,60.0,54.0,-100.00,North,359,1.0,5.0,80,0.00,,,0.03,151.000000,,2013-08-26 16:59:00,
2013-08-26 10:06:00,60.0,54.0,-100.00,North,359,1.0,5.0,80,0.00,,,0.03,151.000000,,2013-08-26 17:06:00,
2013-08-26 10:43:00,63.0,51.0,-100.00,WNW,283,1.0,8.0,65,0.00,,,0.03,224.000000,,2013-08-26 17:43:00,
2013-08-26 10:53:00,63.0,51.0,-100.00,WNW,283,1.0,8.0,65,0.00,,,0.03,224.000000,,2013-08-26 17:53:00,
2013-08-26 11:01:00,63.0,51.0,-100.00,WNW,283,1.0,8.0,65,0.00,,,0.03,224.000000,,2013-08-26 18:01:00,
2013-08-26 12:42:00,67.0,48.0,-100.00,NE,54,1.0,4.0,50,-99.99,,,0.02,312.000000,,2013-08-26 19:42:00,
2013-08-26 12:52:00,67.0,48.0,-100.00,NE,54,1.0,4.0,50,-99.99,,,0.02,312.000000,,2013-08-26 19:52:00,
2013-08-26 13:02:00,67.0,48.0,-100.00,NE,54,1.0,4.0,50,-99.99,,,0.02,312.000000,,2013-08-26 20:02:00,
2013-08-26 13:43:00,66.0,58.0,-100.00,SW,231,1.0,8.0,75,0.01,,,0.03,409.000000,,2013-08-26 20:43:00,
2013-08-26 13:52:00,66.0,58.0,-100.00,SW,231,1.0,8.0,75,0.01,,,0.03,409.000000,,2013-08-26 20:52:00,
2013-08-26 14:01:00,66.0,58.0,-100.00,SW,231,1.0,8.0,75,0.01,,,0.03,409.000000,,2013-08-26 21:01:00,
2013-08-26 14:44:00,68.0,50.0,-100.00,ENE,75,2.0,13.0,52,0.00,,,0.03,629.000000,,2013-08-26 21:44:00,
2013-08-26 14:55:00,68.0,50.0,-100.00,ENE,75,2.0,13.0,52,0.00,,,0.03,629.000000,,2013-08-26 21:55:00,
2013-08-26 15:07:00,68.0,50.0,-100.00,ENE,75,2.0,13.0,52,0.00,,,0.03,629.000000,,2013-08-26 22:07:00,
2013-08-26 15:42:00,71.0,47.0,-100.00,SSE,155,3.0,14.0,42,0.00,,,0.03,716.000000,,2013-08-26 22:42:00,
2013-08-26 15:53:00,71.0,47.0,-100.00,SSE,155,3.0,14.0,42,0.00,,,0.03,716.000000,,2013-08-26 22:53:00,
2013-08-26 16:02:00,71.0,47.0,-100.00,SSE,155,3.0,14.0,42,0.00,,,0.03,716.000000,,2013-08-26 23:02:00,
2013-08-26 16:42:00,73.0,48.0,-100.00,NW,312,3.0,15.0,41,0.00,,,0.03,613.000000,,2013-08-26 23:42:00,
2013-08-26 17:42:00,69.0,46.0,-100.00,NE,56,3.0,15.0,44,-99.99,,,0.03,385.000000,,2013-08-27 00:42:00,
2013-08-26 17:52:00,69.0,46.0,-100.00,NE,56,3.0,15.0,44,-99.99,,,0.03,385.000000,,2013-08-27 00:52:00,
2013-08-26 18:01:00,69.0,46.0,-100.00,NE,56,3.0,15.0,44,-99.99,,,0.03,385.000000,,2013-08-27 01:01:00,
2013-08-26 18:42:00,64.0,43.0,-100.00,SW,231,2.0,20.0,47,0.00,,,-99.99,175.000000,,2013-08-27 01:42:00,
2013-08-26 18:52:00,64.0,43.0,-100.00,SW,231,2.0,20.0,47,0.00,,,-99.99,175.000000,,2013-08-27 01:52:00,
2013-08-26 19:02:00,64.0,43.0,-100.00,SW,231,2.0,20.0,47,0.00,,,-99.99,175.000000,,2013-08-27 02:02:00,
2013-08-26 19:42:00,62.0,45.0,-100.00,NNW,336,3.0,11.0,54,0.00,,,0.02,108.000000,,2013-08-27 02:42:00,
2013-08-26 19:52:00,62.0,45.0,-100.00,NNW,336,3.0,11.0,54,0.00,,,0.02,108.000000,,2013-08-27 02:52:00,
2013-08-26 20:02:00,62.0,45.0,-100.00,NNW,336,3.0,11.0,54,0.00,,,0.02,108.000000,,2013-08-27 03:02:00,
2013-08-26 20:44:00,60.0,47.0,-100.00,ENE,74,1.0,11.0,63,0.00,,,0.02,15.000000,,2013-08-27 03:44:00,
2013-08-26 20:58:00,60.0,47.0,-100.00,ENE,74,1.0,11.0,63,0.00,,,0.02,15.000000,,2013-08-27 03:58:00,
2013-08-26 21:08:00,60.0,47.0,-100.00,ENE,74,1.0,11.0,63,0.00,,,0.02,15.000000,,2013-08-27 04:08:00,
2013-08-26 21:47:00,57.0,45.0,-100.00,SE,139,2.0,7.0,65,0.00,,,0.01,0.000000,,2013-08-27 04:47:00,
2013-08-26 21:54:00,57.0,45.0,-100.00,SE,139,2.0,7.0,65,0.00,,,0.01,0.000000,,2013-08-27 04:54:00,
2013-08-26 22:05:00,57.0,45.0,-100.00,SE,139,2.0,7.0,65,0.00,,,0.01,0.000000,,2013-08-27 05:05:00,
2013-08-26 22:43:00,56.0,48.0,-100.00,NNE,33,1.0,6.0,74,0.00,,,0.01,0.000000,,2013-08-27 05:43:00,
2013-08-26 22:52:00,56.0,48.0,-100.00,NNE,33,1.0,6.0,74,0.00,,,0.01,0.000000,,2013-08-27 05:52:00,
2013-08-26 23:02:00,56.0,48.0,-100.00,NNE,33,1.0,6.0,74,0.00,,,0.01,0.000000,,2013-08-27 06:02:00,
2013-08-26 23:42:00,55.0,47.0,-100.00,North,4,1.0,3.0,75,0.00,,,0.01,0.000000,,2013-08-27 06:42:00,
2013-08-26 23:52:00,55.0,47.0,-100.00,North,4,1.0,3.0,75,0.00,,,0.01,0.000000,,2013-08-27 06:52:00,